createdAt,value
2022-11-16T00:02:06.627Z,93527.69
2022-11-16T00:04:33.099Z,93543.56
2022-11-16T00:06:59.666Z,93557.56
2022-11-16T00:09:28.709Z,93550.56
2022-11-16T00:12:00.265Z,93538.81
2022-11-16T00:14:30.785Z,93539.63
2022-11-16T00:16:58.050Z,93543.59
2022-11-16T00:19:25.789Z,93548.38
2022-11-16T00:21:52.642Z,93544.16
2022-11-16T00:24:21.057Z,93552.44
2022-11-16T00:26:48.461Z,93536.94
2022-11-16T00:29:26.312Z,93534.28
2022-11-16T00:31:53.836Z,93505.00
2022-11-16T00:34:21.354Z,93513.53
2022-11-16T00:36:48.014Z,93513.78
2022-11-16T00:39:16.353Z,93510.38
2022-11-16T00:41:44.036Z,93514.59
2022-11-16T00:44:11.757Z,93510.84
2022-11-16T00:46:38.281Z,93503.16
2022-11-16T00:49:05.639Z,93500.91
2022-11-16T00:51:33.090Z,93499.66
2022-11-16T00:53:59.638Z,93506.28
2022-11-16T00:56:26.029Z,93489.69
2022-11-16T00:58:52.465Z,93492.94
2022-11-16T01:01:18.945Z,93478.34
2022-11-16T01:03:45.967Z,93464.09
2022-11-16T01:06:14.316Z,93457.44
2022-11-16T01:08:42.250Z,93463.53
2022-11-16T01:11:28.502Z,93454.22
2022-11-16T01:13:55.329Z,93449.66
2022-11-16T01:16:23.323Z,93453.22
2022-11-16T01:18:52.053Z,93459.13
2022-11-16T01:21:19.764Z,93455.72
2022-11-16T01:23:46.465Z,93459.28
2022-11-16T01:26:12.888Z,93468.59
2022-11-16T01:28:39.335Z,93472.22
2022-11-16T01:31:05.947Z,93475.97
2022-11-16T01:33:32.358Z,93473.38
2022-11-16T01:35:58.814Z,93463.63
2022-11-16T01:38:29.505Z,93464.72
2022-11-16T01:40:56.720Z,93478.81
2022-11-16T01:43:25.094Z,93463.72
2022-11-16T01:45:51.792Z,93462.59
2022-11-16T01:48:23.209Z,93472.78
2022-11-16T01:50:50.044Z,93472.78
2022-11-16T01:53:16.852Z,93473.66
2022-11-16T01:55:46.123Z,93472.09
2022-11-16T01:58:18.737Z,93470.78
2022-11-16T02:00:45.371Z,93452.00
2022-11-16T02:03:11.817Z,93449.84
2022-11-16T02:06:15.484Z,93463.72
2022-11-16T02:09:22.496Z,93451.97
2022-11-16T02:12:03.926Z,93462.31
2022-11-16T02:14:46.660Z,93453.91
2022-11-16T02:17:45.221Z,93437.50
2022-11-16T02:20:42.346Z,93464.47
2022-11-16T02:23:36.778Z,93462.34
2022-11-16T02:26:33.196Z,93464.19
2022-11-16T02:29:31.636Z,93453.88
2022-11-16T02:32:19.232Z,93460.34
2022-11-16T02:35:07.370Z,93473.97
2022-11-16T02:37:37.742Z,93465.94
2022-11-16T02:40:09.253Z,93484.94
2022-11-16T02:43:09.532Z,93484.78
2022-11-16T02:45:46.413Z,93479.22
2022-11-16T02:48:22.568Z,93484.78
2022-11-16T02:50:52.795Z,93471.53
2022-11-16T02:53:24.251Z,93482.41
2022-11-16T02:55:51.101Z,93474.34
2022-11-16T02:58:21.320Z,93492.94
2022-11-16T03:01:07.982Z,93513.03
2022-11-16T03:03:52.654Z,93507.66
2022-11-16T03:06:28.895Z,93512.19
2022-11-16T03:09:05.050Z,93510.66
2022-11-16T03:11:57.624Z,93504.78
2022-11-16T03:14:33.093Z,93522.25
2022-11-16T03:17:01.977Z,93519.59
2022-11-16T03:19:41.618Z,93514.84
2022-11-16T03:22:12.619Z,93520.63
2022-11-16T03:24:39.744Z,93524.09
2022-11-16T03:27:29.299Z,93519.59
2022-11-16T03:30:05.125Z,93505.25
2022-11-16T03:32:43.826Z,93521.19
2022-11-16T03:35:35.082Z,93531.50
2022-11-16T03:38:04.097Z,93521.19
2022-11-16T03:40:34.297Z,93520.13
2022-11-16T03:43:03.071Z,93531.78
2022-11-16T03:45:30.902Z,93531.78
2022-11-16T03:47:57.368Z,93524.63
2022-11-16T03:50:23.939Z,93547.63
2022-11-16T03:52:50.410Z,93534.91
2022-11-16T03:55:16.915Z,93557.66
2022-11-16T03:57:43.414Z,93557.09
2022-11-16T04:00:10.545Z,93558.19
2022-11-16T04:02:36.947Z,93568.66
2022-11-16T04:05:22.006Z,93575.63
2022-11-16T04:08:07.301Z,93584.25
2022-11-16T04:10:52.654Z,93577.06
2022-11-16T04:13:46.713Z,93591.41
2022-11-16T04:16:31.378Z,93597.47
2022-11-16T04:19:16.257Z,93600.41
2022-11-16T04:22:06.761Z,93606.84
2022-11-16T04:24:37.976Z,93619.63
2022-11-16T04:27:46.985Z,93630.09
2022-11-16T04:30:13.652Z,93632.44
2022-11-16T04:33:18.876Z,93639.59
2022-11-16T04:36:03.881Z,93635.91
2022-11-16T04:38:30.410Z,93647.59
2022-11-16T04:40:56.911Z,93644.50
2022-11-16T04:43:23.328Z,93630.63
2022-11-16T04:46:08.189Z,93638.63
2022-11-16T04:48:34.883Z,93650.25
2022-11-16T04:51:01.590Z,93655.03
2022-11-16T04:53:27.992Z,93661.88
2022-11-16T04:55:56.694Z,93648.38
2022-11-16T04:58:26.961Z,93659.13
2022-11-16T05:00:53.464Z,93662.63
2022-11-16T05:03:19.850Z,93668.44
2022-11-16T05:05:46.350Z,93674.84
2022-11-16T05:08:12.727Z,93665.84
2022-11-16T05:10:39.122Z,93673.22
2022-11-16T05:13:05.569Z,93674.75
2022-11-16T05:15:31.982Z,93672.34
2022-11-16T05:17:58.504Z,93667.31
2022-11-16T05:20:43.611Z,93671.09
2022-11-16T05:23:29.972Z,93665.53
2022-11-16T05:25:56.358Z,93679.81
2022-11-16T05:28:22.810Z,93678.53
2022-11-16T05:30:49.226Z,93671.16
2022-11-16T05:33:17.773Z,93663.19
2022-11-16T05:35:44.262Z,93672.44
2022-11-16T05:38:10.696Z,93673.25
2022-11-16T05:40:37.116Z,93672.84
2022-11-16T05:43:03.510Z,93667.81
2022-11-16T05:45:29.902Z,93656.53
2022-11-16T05:47:56.422Z,93658.13
2022-11-16T05:50:22.885Z,93671.16
2022-11-16T05:52:49.308Z,93677.00
2022-11-16T05:55:15.876Z,93671.94
2022-11-16T05:57:42.383Z,93672.44
2022-11-16T06:00:09.490Z,93677.72
2022-11-16T06:02:36.478Z,93670.13
2022-11-16T06:05:03.253Z,93668.59
2022-11-16T06:07:29.828Z,93670.13
2022-11-16T06:09:56.278Z,93668.50
2022-11-16T06:12:22.652Z,93666.66
2022-11-16T06:14:49.167Z,93669.56
2022-11-16T06:17:15.579Z,93666.44
2022-11-16T06:19:42.074Z,93668.75
2022-11-16T06:22:08.548Z,93668.50
2022-11-16T06:24:34.932Z,93662.63
2022-11-16T06:27:01.350Z,93666.06
2022-11-16T06:29:27.779Z,93666.44
2022-11-16T06:31:54.168Z,93658.97
2022-11-16T06:34:20.607Z,93660.59
2022-11-16T06:36:47.178Z,93663.22
2022-11-16T06:39:13.711Z,93647.06
2022-11-16T06:41:41.598Z,93655.88
2022-11-16T06:44:08.366Z,93645.25
2022-11-16T06:46:34.749Z,93651.09
2022-11-16T06:49:01.225Z,93644.22
2022-11-16T06:51:27.601Z,93650.34
2022-11-16T06:53:54.027Z,93647.19
2022-11-16T06:56:20.583Z,93650.09
2022-11-16T06:58:46.984Z,93650.09
2022-11-16T07:01:13.587Z,93643.75
2022-11-16T07:03:40.139Z,93647.22
2022-11-16T07:06:12.004Z,93647.41
2022-11-16T07:08:39.221Z,93636.38
2022-11-16T07:11:07.430Z,93640.44
2022-11-16T07:13:35.586Z,93642.13
2022-11-16T07:16:09.874Z,93639.00
2022-11-16T07:18:41.432Z,93641.13
2022-11-16T07:21:09.973Z,93626.53
2022-11-16T07:23:36.957Z,93634.53
2022-11-16T07:26:04.999Z,93625.75
2022-11-16T07:28:32.510Z,93640.72
2022-11-16T07:31:03.555Z,93638.34
2022-11-16T07:33:30.388Z,93643.97
2022-11-16T07:36:05.035Z,93643.50
2022-11-16T07:38:32.798Z,93649.56
2022-11-16T07:41:07.699Z,93646.66
2022-11-16T07:43:37.032Z,93637.88
2022-11-16T07:46:44.821Z,93650.91
2022-11-16T07:48:54.446Z,93654.63
2022-11-16T07:51:20.827Z,93640.09
2022-11-16T07:53:47.373Z,93654.78
2022-11-16T07:56:13.913Z,93655.09
2022-11-16T07:58:40.635Z,93655.69
2022-11-16T08:01:09.532Z,93643.50
2022-11-16T08:03:36.215Z,93664.09
2022-11-16T08:06:05.062Z,93661.97
2022-11-16T08:08:32.209Z,93661.50
2022-11-16T08:11:05.650Z,93649.56
2022-11-16T08:13:34.312Z,93655.31
2022-11-16T08:16:05.595Z,93661.16
2022-11-16T08:18:32.289Z,93655.63
2022-11-16T08:21:00.096Z,93652.66
2022-11-16T08:23:26.512Z,93670.25
2022-11-16T08:25:52.931Z,93677.00
2022-11-16T08:28:19.326Z,93674.03
2022-11-16T08:30:51.006Z,93665.69
2022-11-16T08:33:21.439Z,93671.22
2022-11-16T08:35:48.373Z,93672.00
2022-11-16T08:38:15.221Z,93675.53
2022-11-16T08:40:41.951Z,93679.44
2022-11-16T08:43:08.326Z,93670.56
2022-11-16T08:45:34.726Z,93677.69
2022-11-16T08:48:03.981Z,93683.63
2022-11-16T08:50:36.289Z,93689.69
2022-11-16T08:53:10.978Z,93672.53
2022-11-16T08:55:37.437Z,93685.56
2022-11-16T08:58:03.863Z,93681.03
2022-11-16T09:00:30.291Z,93676.00
2022-11-16T09:02:56.728Z,93695.56
2022-11-16T09:05:23.137Z,93695.00
2022-11-16T09:07:49.568Z,93688.16
2022-11-16T09:10:18.897Z,93699.53
2022-11-16T09:12:45.347Z,93702.69
2022-11-16T09:15:11.792Z,93709.19
2022-11-16T09:17:38.279Z,93713.72
2022-11-16T09:20:05.205Z,93713.63
2022-11-16T09:22:31.628Z,93722.75
2022-11-16T09:24:58.040Z,93717.41
2022-11-16T09:27:24.433Z,93708.34
2022-11-16T09:29:50.896Z,93728.41
2022-11-16T09:32:17.354Z,93724.00
2022-11-16T09:34:43.766Z,93728.41
2022-11-16T09:37:10.278Z,93719.56
2022-11-16T09:39:36.778Z,93728.13
2022-11-16T09:42:26.854Z,93734.16
2022-11-16T09:45:00.421Z,93726.28
2022-11-16T09:47:43.196Z,93740.63
2022-11-16T09:50:22.376Z,93736.53
2022-11-16T09:52:51.456Z,93740.63
2022-11-16T09:55:46.844Z,93741.63
2022-11-16T09:58:25.174Z,93742.03
2022-11-16T10:00:59.256Z,93736.00
2022-11-16T10:03:28.785Z,93726.44
2022-11-16T10:06:05.345Z,93741.16
2022-11-16T10:08:41.094Z,93741.38
2022-11-16T10:11:28.731Z,93737.38
2022-11-16T10:13:56.297Z,93738.69
2022-11-16T10:17:01.001Z,93731.22
2022-11-16T10:19:33.890Z,93735.28
2022-11-16T10:22:20.805Z,93727.31
2022-11-16T10:25:18.689Z,93726.28
2022-11-16T10:27:54.118Z,93725.53
2022-11-16T10:30:22.057Z,93728.41
2022-11-16T10:33:10.894Z,93719.94
2022-11-16T10:35:42.780Z,93721.63
2022-11-16T10:38:17.698Z,93713.38
2022-11-16T10:40:49.800Z,93709.94
2022-11-16T10:43:25.524Z,93699.97
2022-11-16T10:45:58.032Z,93696.22
2022-11-16T10:48:39.601Z,93700.94
2022-11-16T10:51:08.671Z,93702.22
2022-11-16T10:53:40.578Z,93702.00
2022-11-16T10:56:24.864Z,93697.94
2022-11-16T10:58:54.128Z,93700.22
2022-11-16T11:01:50.636Z,93704.34
2022-11-16T11:04:31.544Z,93702.72
2022-11-16T11:07:21.195Z,93695.91
2022-11-16T11:09:54.194Z,93704.22
2022-11-16T11:12:49.546Z,93708.69
2022-11-16T11:15:27.043Z,93705.31
2022-11-16T11:18:15.403Z,93703.19
2022-11-16T11:20:45.481Z,93707.13
2022-11-16T11:23:18.814Z,93707.28
2022-11-16T11:25:49.976Z,93699.41
2022-11-16T11:28:19.652Z,93704.13
2022-11-16T11:30:57.633Z,93706.84
2022-11-16T11:33:27.024Z,93700.41
2022-11-16T11:36:38.470Z,93700.78
2022-11-16T11:39:12.521Z,93676.44
2022-11-16T11:41:42.708Z,93709.50
2022-11-16T11:44:20.258Z,93700.84
2022-11-16T11:49:49.873Z,93706.25
2022-11-16T11:52:34.175Z,93699.97
2022-11-16T11:55:02.816Z,93706.19
2022-11-16T11:57:29.478Z,93707.00
2022-11-16T11:59:56.000Z,93703.97
2022-11-16T12:02:37.480Z,93711.94
2022-11-16T12:05:20.829Z,93693.94
2022-11-16T12:08:03.663Z,93704.06
2022-11-16T12:10:52.133Z,93707.84
2022-11-16T12:13:43.473Z,93699.84
2022-11-16T12:16:22.263Z,93697.09
2022-11-16T12:19:21.249Z,93701.84
2022-11-16T12:22:06.133Z,93700.63
2022-11-16T12:25:24.996Z,93692.41
2022-11-16T12:27:57.553Z,93696.13
2022-11-16T12:30:24.761Z,93693.84
2022-11-16T12:32:59.731Z,93695.13
2022-11-16T12:35:52.012Z,93686.91
2022-11-16T12:38:50.301Z,93687.97
2022-11-16T12:41:37.506Z,93663.44
2022-11-16T12:44:13.751Z,93673.84
2022-11-16T12:46:59.004Z,93676.91
2022-11-16T12:49:35.928Z,93677.16
2022-11-16T12:52:02.301Z,93684.28
2022-11-16T12:54:31.749Z,93671.56
2022-11-16T12:57:12.453Z,93674.78
2022-11-16T13:00:12.542Z,93677.44
2022-11-16T13:03:18.700Z,93680.31
2022-11-16T13:05:59.268Z,93671.75
2022-11-16T13:09:01.606Z,93666.84
2022-11-16T13:11:33.838Z,93670.41
2022-11-16T13:14:05.190Z,93659.44
2022-11-16T13:16:31.936Z,93669.09
2022-11-16T13:18:59.993Z,93674.34
2022-11-16T13:21:45.665Z,93666.53
2022-11-16T13:24:26.235Z,93673.16
2022-11-16T13:27:24.150Z,93660.34
2022-11-16T13:30:28.531Z,93675.13
2022-11-16T13:33:30.067Z,93657.81
2022-11-16T13:35:56.529Z,93660.34
2022-11-16T13:38:51.145Z,93672.56
2022-11-16T13:41:33.582Z,93662.72
2022-11-16T13:44:01.073Z,93651.28
2022-11-16T13:46:55.391Z,93660.88
2022-11-16T13:49:29.378Z,93665.34
2022-11-16T13:52:16.865Z,93659.09
2022-11-16T13:54:50.790Z,93651.63
2022-11-16T13:57:26.481Z,93644.16
2022-11-16T14:00:11.864Z,93659.81
2022-11-16T14:02:40.882Z,93653.47
2022-11-16T14:05:13.192Z,93651.63
2022-11-16T14:07:47.330Z,93645.56
2022-11-16T14:10:33.865Z,93646.34
2022-11-16T14:13:02.062Z,93643.72
2022-11-16T14:15:37.642Z,93641.59
2022-11-16T14:18:10.065Z,93637.13
2022-11-16T14:20:43.647Z,93626.81
2022-11-16T14:23:21.010Z,93633.69
2022-11-16T14:26:06.548Z,93634.47
2022-11-16T14:28:50.369Z,93626.56
2022-11-16T14:31:30.385Z,93622.31
2022-11-16T14:33:59.831Z,93624.69
2022-11-16T14:36:44.450Z,93626.03
2022-11-16T14:39:16.762Z,93620.75
2022-11-16T14:41:47.167Z,93618.13
2022-11-16T14:44:18.663Z,93617.31
2022-11-16T14:46:45.838Z,93610.19
2022-11-16T14:49:16.393Z,93608.34
2022-11-16T14:51:47.463Z,93609.66
2022-11-16T14:54:28.686Z,93608.34
2022-11-16T14:57:17.729Z,93603.06
2022-11-16T14:59:44.194Z,93600.66
2022-11-16T15:02:23.040Z,93602.00
2022-11-16T15:04:52.557Z,93584.00
2022-11-16T15:07:22.842Z,93588.75
2022-11-16T15:09:59.102Z,93599.63
2022-11-16T15:12:42.514Z,93599.09
2022-11-16T15:15:12.003Z,93600.16
2022-11-16T15:17:51.422Z,93597.50
2022-11-16T15:20:21.771Z,93595.66
2022-11-16T15:22:53.255Z,93596.19
2022-11-16T15:25:42.136Z,93583.50
2022-11-16T15:28:22.551Z,93579.81
2022-11-16T15:30:51.787Z,93583.50
2022-11-16T15:33:23.944Z,93582.44
2022-11-16T15:35:50.550Z,93591.44
2022-11-16T15:38:26.501Z,93591.19
2022-11-16T15:40:54.991Z,93583.75
2022-11-16T15:43:25.797Z,93596.97
2022-11-16T15:45:52.930Z,93602.25
2022-11-16T15:48:22.421Z,93611.78
2022-11-16T15:51:02.981Z,93611.50
2022-11-16T15:53:38.950Z,93610.69
2022-11-16T15:56:32.793Z,93608.06
2022-11-16T15:59:09.376Z,93600.13
2022-11-16T16:01:42.663Z,93596.19
2022-11-16T16:04:15.970Z,93585.31
2022-11-16T16:06:45.485Z,93604.63
2022-11-16T16:09:27.579Z,93593.22
2022-11-16T16:12:13.848Z,93607.78
2022-11-16T16:14:40.389Z,93610.44
2022-11-16T16:17:09.057Z,93602.78
2022-11-16T16:19:44.494Z,93605.13
2022-11-16T16:22:25.894Z,93601.69
2022-11-16T16:24:52.717Z,93600.91
2022-11-16T16:27:21.942Z,93606.22
2022-11-16T16:29:50.766Z,93581.34
2022-11-16T16:32:30.681Z,93591.66
2022-11-16T16:34:59.218Z,93579.50
2022-11-16T16:37:27.272Z,93571.25
2022-11-16T16:39:53.720Z,93573.44
2022-11-16T16:42:20.380Z,93570.00
2022-11-16T16:44:47.593Z,93581.09
2022-11-16T16:47:14.983Z,93570.72
2022-11-16T16:49:41.857Z,93580.31
2022-11-16T16:52:11.852Z,93577.13
2022-11-16T16:54:38.494Z,93565.84
2022-11-16T16:57:04.949Z,93576.75
2022-11-16T16:59:31.733Z,93571.19
2022-11-16T17:01:59.260Z,93571.75
2022-11-16T17:04:26.100Z,93572.31
2022-11-16T17:06:53.222Z,93582.09
2022-11-16T17:09:20.115Z,93580.75
2022-11-16T17:11:48.065Z,93571.25
2022-11-16T17:14:14.617Z,93552.44
2022-11-16T17:16:41.103Z,93566.50
2022-11-16T17:19:07.484Z,93569.94
2022-11-16T17:21:35.777Z,93560.13
2022-11-16T17:24:03.212Z,93571.50
2022-11-16T17:26:29.717Z,93564.91
2022-11-16T17:28:57.445Z,93570.72
2022-11-16T17:31:25.061Z,93563.59
2022-11-16T17:33:51.538Z,93556.69
2022-11-16T17:36:18.371Z,93544.25
2022-11-16T17:38:45.315Z,93562.50
2022-11-16T17:41:14.517Z,93553.56
2022-11-16T17:43:42.643Z,93558.81
2022-11-16T17:46:11.341Z,93546.63
2022-11-16T17:48:39.390Z,93554.31
2022-11-16T17:51:06.285Z,93541.59
2022-11-16T17:53:35.118Z,93549.81
2022-11-16T17:56:02.913Z,93551.66
2022-11-16T17:58:30.364Z,93541.38
2022-11-16T18:00:57.436Z,93512.78
2022-11-16T18:03:28.392Z,93530.78
2022-11-16T18:06:11.203Z,93515.72
2022-11-16T18:08:37.946Z,93519.69
2022-11-16T18:11:16.387Z,93533.16
2022-11-16T18:13:43.685Z,93530.75
2022-11-16T18:16:15.485Z,93533.16
2022-11-16T18:18:42.942Z,93523.50
2022-11-16T18:21:13.548Z,93532.59
2022-11-16T18:23:42.695Z,93525.75
2022-11-16T18:26:11.776Z,93523.63
2022-11-16T18:28:38.256Z,93518.88
2022-11-16T18:31:11.002Z,93508.56
2022-11-16T18:33:38.599Z,93492.97
2022-11-16T18:36:06.872Z,93503.78
2022-11-16T18:38:33.573Z,93505.25
2022-11-16T18:41:12.191Z,93505.34
2022-11-16T18:43:42.506Z,93498.59
2022-11-16T18:46:08.919Z,93507.63
2022-11-16T18:48:35.358Z,93501.22
2022-11-16T18:51:03.718Z,93507.13
2022-11-16T18:53:31.246Z,93511.66
2022-11-16T18:55:58.451Z,93496.88
2022-11-16T18:58:49.395Z,93501.09
2022-11-16T19:01:14.752Z,93501.66
2022-11-16T19:03:41.513Z,93487.34
2022-11-16T19:06:09.431Z,93491.00
2022-11-16T19:08:37.998Z,93483.63
2022-11-16T19:11:12.980Z,93484.44
2022-11-16T19:13:40.982Z,93474.16
2022-11-16T19:16:09.305Z,93469.66
2022-11-16T19:18:36.458Z,93459.84
2022-11-16T19:21:14.393Z,93469.66
2022-11-16T19:23:43.392Z,93468.06
2022-11-16T19:26:12.234Z,93455.34
2022-11-16T19:28:40.638Z,93452.72
2022-11-16T19:31:12.377Z,93443.75
2022-11-16T19:33:39.199Z,93427.13
2022-11-16T19:36:14.048Z,93441.13
2022-11-16T19:38:41.261Z,93432.38
2022-11-16T19:41:09.878Z,93426.06
2022-11-16T19:43:36.657Z,93428.16
2022-11-16T19:46:05.622Z,93421.56
2022-11-16T19:48:32.811Z,93440.03
2022-11-16T19:51:29.677Z,93433.72
2022-11-16T19:53:56.493Z,93437.19
2022-11-16T19:56:24.041Z,93422.63
2022-11-16T19:58:51.061Z,93412.44
2022-11-16T20:01:20.745Z,93422.25
2022-11-16T20:03:47.904Z,93415.13
2022-11-16T20:06:17.349Z,93402.28
2022-11-16T20:08:48.222Z,93421.16
2022-11-16T20:11:22.902Z,93411.88
2022-11-16T20:13:51.493Z,93411.66
2022-11-16T20:16:20.171Z,93413.59
2022-11-16T20:18:47.523Z,93406.94
2022-11-16T20:21:24.135Z,93403.16
2022-11-16T20:23:54.196Z,93398.72
2022-11-16T20:26:21.473Z,93401.63
2022-11-16T20:28:51.047Z,93405.22
2022-11-16T20:31:19.657Z,93419.75
2022-11-16T20:33:51.476Z,93391.78
2022-11-16T20:36:18.871Z,93393.66
2022-11-16T20:38:45.631Z,93394.22
2022-11-16T20:41:19.454Z,93403.19
2022-11-16T20:43:47.595Z,93394.22
2022-11-16T20:46:16.194Z,93392.88
2022-11-16T20:48:43.760Z,93391.03
2022-11-16T20:51:12.715Z,93387.25
2022-11-16T20:53:39.609Z,93394.09
2022-11-16T20:56:07.658Z,93391.00
2022-11-16T20:58:34.918Z,93387.03
2022-11-16T21:01:02.783Z,93391.03
2022-11-16T21:03:29.574Z,93383.63
2022-11-16T21:05:55.985Z,93392.09
2022-11-16T21:08:23.547Z,93391.00
2022-11-16T21:10:50.000Z,93400.75
2022-11-16T21:13:37.227Z,93399.50
2022-11-16T21:16:11.384Z,93407.66
2022-11-16T21:18:39.399Z,93400.94
2022-11-16T21:21:07.874Z,93407.81
2022-11-16T21:23:35.800Z,93404.38
2022-11-16T21:26:13.239Z,93408.63
2022-11-16T21:28:39.875Z,93417.63
2022-11-16T21:31:09.709Z,93398.56
2022-11-16T21:33:36.564Z,93408.25
2022-11-16T21:36:09.958Z,93409.34
2022-11-16T21:38:38.541Z,93407.50
2022-11-16T21:41:06.365Z,93393.25
2022-11-16T21:43:37.100Z,93386.16
2022-11-16T21:46:07.105Z,93380.88
2022-11-16T21:48:34.738Z,93373.72
2022-11-16T21:51:07.179Z,93361.59
2022-11-16T21:53:34.343Z,93366.75
2022-11-16T21:56:01.393Z,93358.09
2022-11-16T21:58:28.299Z,93352.19
2022-11-16T22:01:00.619Z,93366.16
2022-11-16T22:03:31.974Z,93359.78
2022-11-16T22:06:18.712Z,93358.03
2022-11-16T22:08:46.031Z,93347.63
2022-11-16T22:11:13.710Z,93345.94
2022-11-16T22:13:40.609Z,93350.34
2022-11-16T22:16:08.946Z,93352.06
2022-11-16T22:18:35.722Z,93346.97
2022-11-16T22:21:03.104Z,93346.38
2022-11-16T22:23:30.024Z,93345.91
2022-11-16T22:26:02.656Z,93334.56
2022-11-16T22:28:29.154Z,93326.09
2022-11-16T22:31:10.942Z,93316.94
2022-11-16T22:33:38.131Z,93312.91
2022-11-16T22:36:05.473Z,93315.06
2022-11-16T22:38:31.954Z,93312.66
2022-11-16T22:40:58.511Z,93303.88
2022-11-16T22:43:29.923Z,93315.75
2022-11-16T22:46:01.104Z,93306.16
2022-11-16T22:48:38.677Z,93313.91
2022-11-16T22:51:25.446Z,93305.72
2022-11-16T22:54:00.573Z,93314.81
2022-11-16T22:56:28.978Z,93316.41
2022-11-16T22:58:56.034Z,93332.00
2022-11-16T23:01:22.545Z,93321.03
2022-11-16T23:03:49.223Z,93320.81
2022-11-16T23:06:16.521Z,93318.78
2022-11-16T23:08:43.095Z,93305.91
2022-11-16T23:11:33.833Z,93331.22
2022-11-16T23:14:19.691Z,93321.06
2022-11-16T23:16:46.873Z,93302.09
2022-11-16T23:19:34.526Z,93300.22
2022-11-16T23:22:19.883Z,93289.50
2022-11-16T23:25:05.240Z,93277.41
2022-11-16T23:27:40.306Z,93282.41
2022-11-16T23:30:12.060Z,93272.41
2022-11-16T23:32:39.433Z,93272.94
2022-11-16T23:35:06.194Z,93268.56
2022-11-16T23:37:32.632Z,93262.50
2022-11-16T23:39:59.226Z,93263.47
2022-11-16T23:42:44.684Z,93265.09
2022-11-16T23:45:11.147Z,93229.47
2022-11-16T23:47:37.528Z,93246.63
2022-11-16T23:50:04.337Z,93249.94
2022-11-16T23:52:30.737Z,93231.91
2022-11-16T23:54:57.258Z,93243.84
2022-11-16T23:57:23.635Z,93252.81
2022-11-16T23:59:50.017Z,93239.22
